sensor_id;sensor_type;location;lat;lon;timestamp;temperature;humidity
22192;DHT22;11261;52.456;10.850;2022-12-18T00:00:06;-6.10;99.90
22192;DHT22;11261;52.456;10.850;2022-12-18T00:02:34;-6.10;99.90
22192;DHT22;11261;52.456;10.850;2022-12-18T00:05:03;-6.10;99.90
22192;DHT22;11261;52.456;10.850;2022-12-18T00:07:31;-6.00;99.90
22192;DHT22;11261;52.456;10.850;2022-12-18T00:09:59;-6.10;99.90
22192;DHT22;11261;52.456;10.850;2022-12-18T00:12:27;-6.30;99.90
22192;DHT22;11261;52.456;10.850;2022-12-18T00:14:56;-6.40;99.90
22192;DHT22;11261;52.456;10.850;2022-12-18T00:17:25;-6.50;99.90
22192;DHT22;11261;52.456;10.850;2022-12-18T00:19:53;-6.40;99.90
22192;DHT22;11261;52.456;10.850;2022-12-18T00:22:22;-6.10;99.90
22192;DHT22;11261;52.456;10.850;2022-12-18T00:24:50;-6.00;99.90
22192;DHT22;11261;52.456;10.850;2022-12-18T00:27:18;-6.00;99.90
22192;DHT22;11261;52.456;10.850;2022-12-18T00:29:48;-6.00;99.90
22192;DHT22;11261;52.456;10.850;2022-12-18T00:32:16;-5.90;99.90
22192;DHT22;11261;52.456;10.850;2022-12-18T00:34:46;-6.10;99.90
22192;DHT22;11261;52.456;10.850;2022-12-18T00:37:14;-6.30;99.90
22192;DHT22;11261;52.456;10.850;2022-12-18T00:39:48;-6.30;99.90
22192;DHT22;11261;52.456;10.850;2022-12-18T00:42:16;-6.10;99.90
22192;DHT22;11261;52.456;10.850;2022-12-18T00:45:03;-6.00;99.90
22192;DHT22;11261;52.456;10.850;2022-12-18T00:47:38;-6.10;99.90
22192;DHT22;11261;52.456;10.850;2022-12-18T00:50:09;-6.10;99.90
22192;DHT22;11261;52.456;10.850;2022-12-18T00:52:37;-6.10;99.90
22192;DHT22;11261;52.456;10.850;2022-12-18T00:55:06;-6.20;99.90
22192;DHT22;11261;52.456;10.850;2022-12-18T00:57:34;-6.30;99.90
22192;DHT22;11261;52.456;10.850;2022-12-18T01:00:04;-6.10;99.90
22192;DHT22;11261;52.456;10.850;2022-12-18T01:02:33;-6.10;99.90
22192;DHT22;11261;52.456;10.850;2022-12-18T01:05:02;-6.20;99.90
22192;DHT22;11261;52.456;10.850;2022-12-18T01:07:32;-6.20;99.90
22192;DHT22;11261;52.456;10.850;2022-12-18T01:10:00;-6.30;99.90
22192;DHT22;11261;52.456;10.850;2022-12-18T01:12:28;-6.30;99.90
22192;DHT22;11261;52.456;10.850;2022-12-18T01:14:57;-6.20;99.90
22192;DHT22;11261;52.456;10.850;2022-12-18T01:17:25;-6.30;99.90
22192;DHT22;11261;52.456;10.850;2022-12-18T01:19:53;-6.30;99.90
22192;DHT22;11261;52.456;10.850;2022-12-18T01:22:21;-6.40;99.90
22192;DHT22;11261;52.456;10.850;2022-12-18T01:24:51;-6.50;99.90
22192;DHT22;11261;52.456;10.850;2022-12-18T01:27:19;-6.50;99.90
22192;DHT22;11261;52.456;10.850;2022-12-18T01:29:47;-6.40;99.90
22192;DHT22;11261;52.456;10.850;2022-12-18T01:32:15;-6.60;99.90
22192;DHT22;11261;52.456;10.850;2022-12-18T01:34:43;-6.90;99.90
22192;DHT22;11261;52.456;10.850;2022-12-18T01:37:12;-7.10;99.90
22192;DHT22;11261;52.456;10.850;2022-12-18T01:39:40;-7.30;99.90
22192;DHT22;11261;52.456;10.850;2022-12-18T01:42:11;-7.10;99.90
22192;DHT22;11261;52.456;10.850;2022-12-18T01:44:58;-6.90;99.90
22192;DHT22;11261;52.456;10.850;2022-12-18T01:47:30;-6.90;99.90
22192;DHT22;11261;52.456;10.850;2022-12-18T01:50:01;-6.80;99.90
22192;DHT22;11261;52.456;10.850;2022-12-18T01:52:32;-6.60;99.90
22192;DHT22;11261;52.456;10.850;2022-12-18T01:55:03;-6.50;99.90
22192;DHT22;11261;52.456;10.850;2022-12-18T01:57:34;-6.50;99.90
22192;DHT22;11261;52.456;10.850;2022-12-18T02:00:05;-6.60;99.90
22192;DHT22;11261;52.456;10.850;2022-12-18T02:02:34;-6.60;99.90
22192;DHT22;11261;52.456;10.850;2022-12-18T02:05:04;-6.50;99.90
22192;DHT22;11261;52.456;10.850;2022-12-18T02:07:40;-6.60;99.90
22192;DHT22;11261;52.456;10.850;2022-12-18T02:10:14;-6.90;99.90
22192;DHT22;11261;52.456;10.850;2022-12-18T02:12:54;-7.10;99.90
22192;DHT22;11261;52.456;10.850;2022-12-18T02:15:27;-7.40;99.90
22192;DHT22;11261;52.456;10.850;2022-12-18T02:17:59;-7.20;99.90
22192;DHT22;11261;52.456;10.850;2022-12-18T02:20:33;-7.10;99.90
22192;DHT22;11261;52.456;10.850;2022-12-18T02:23:09;-7.10;99.90
22192;DHT22;11261;52.456;10.850;2022-12-18T02:26:04;-7.00;99.90
22192;DHT22;11261;52.456;10.850;2022-12-18T02:28:40;-6.80;99.90
22192;DHT22;11261;52.456;10.850;2022-12-18T02:31:13;-6.70;99.90
22192;DHT22;11261;52.456;10.850;2022-12-18T02:33:43;-6.80;99.90
22192;DHT22;11261;52.456;10.850;2022-12-18T02:36:14;-6.50;99.90
22192;DHT22;11261;52.456;10.850;2022-12-18T02:38:44;-6.70;99.90
22192;DHT22;11261;52.456;10.850;2022-12-18T02:41:16;-6.60;99.90
22192;DHT22;11261;52.456;10.850;2022-12-18T02:43:48;-6.80;99.90
22192;DHT22;11261;52.456;10.850;2022-12-18T02:46:31;-6.90;99.90
22192;DHT22;11261;52.456;10.850;2022-12-18T02:49:06;-7.30;99.90
22192;DHT22;11261;52.456;10.850;2022-12-18T02:51:44;-7.70;99.90
22192;DHT22;11261;52.456;10.850;2022-12-18T02:54:23;-7.40;99.90
22192;DHT22;11261;52.456;10.850;2022-12-18T02:56:58;-7.00;99.90
22192;DHT22;11261;52.456;10.850;2022-12-18T02:59:33;-7.00;99.90
22192;DHT22;11261;52.456;10.850;2022-12-18T03:02:11;-7.00;99.90
22192;DHT22;11261;52.456;10.850;2022-12-18T03:04:48;-7.00;99.90
22192;DHT22;11261;52.456;10.850;2022-12-18T03:07:21;-7.10;99.90
22192;DHT22;11261;52.456;10.850;2022-12-18T03:09:52;-7.10;99.90
22192;DHT22;11261;52.456;10.850;2022-12-18T03:12:28;-7.00;99.90
22192;DHT22;11261;52.456;10.850;2022-12-18T03:15:02;-6.90;99.90
22192;DHT22;11261;52.456;10.850;2022-12-18T03:17:33;-6.80;99.90
22192;DHT22;11261;52.456;10.850;2022-12-18T03:20:07;-6.80;99.90
22192;DHT22;11261;52.456;10.850;2022-12-18T03:22:38;-6.70;99.90
22192;DHT22;11261;52.456;10.850;2022-12-18T03:25:10;-6.90;99.90
22192;DHT22;11261;52.456;10.850;2022-12-18T03:27:43;-7.10;99.90
22192;DHT22;11261;52.456;10.850;2022-12-18T03:30:15;-7.60;99.90
22192;DHT22;11261;52.456;10.850;2022-12-18T03:32:47;-7.30;99.90
22192;DHT22;11261;52.456;10.850;2022-12-18T03:35:21;-7.20;99.90
22192;DHT22;11261;52.456;10.850;2022-12-18T03:37:50;-7.00;99.90
22192;DHT22;11261;52.456;10.850;2022-12-18T03:40:20;-6.90;99.90
22192;DHT22;11261;52.456;10.850;2022-12-18T03:42:54;-7.40;99.90
22192;DHT22;11261;52.456;10.850;2022-12-18T03:45:27;-7.30;99.90
22192;DHT22;11261;52.456;10.850;2022-12-18T03:48:01;-7.80;99.90
22192;DHT22;11261;52.456;10.850;2022-12-18T03:50:37;-8.00;99.90
22192;DHT22;11261;52.456;10.850;2022-12-18T03:53:15;-7.70;99.90
22192;DHT22;11261;52.456;10.850;2022-12-18T03:55:46;-7.30;99.90
22192;DHT22;11261;52.456;10.850;2022-12-18T03:58:19;-7.30;99.90
22192;DHT22;11261;52.456;10.850;2022-12-18T04:00:49;-7.20;99.90
22192;DHT22;11261;52.456;10.850;2022-12-18T04:03:19;-7.40;99.90
22192;DHT22;11261;52.456;10.850;2022-12-18T04:05:54;-7.30;99.90
22192;DHT22;11261;52.456;10.850;2022-12-18T04:08:23;-7.60;99.90
22192;DHT22;11261;52.456;10.850;2022-12-18T04:10:51;-7.50;99.90
22192;DHT22;11261;52.456;10.850;2022-12-18T04:13:27;-7.30;99.90
22192;DHT22;11261;52.456;10.850;2022-12-18T04:15:56;-7.10;99.90
22192;DHT22;11261;52.456;10.850;2022-12-18T04:18:25;-7.30;99.90
22192;DHT22;11261;52.456;10.850;2022-12-18T04:20:54;-7.20;99.90
22192;DHT22;11261;52.456;10.850;2022-12-18T04:23:22;-7.30;99.90
22192;DHT22;11261;52.456;10.850;2022-12-18T04:25:50;-7.10;99.90
22192;DHT22;11261;52.456;10.850;2022-12-18T04:28:18;-7.30;99.90
22192;DHT22;11261;52.456;10.850;2022-12-18T04:30:48;-8.00;99.90
22192;DHT22;11261;52.456;10.850;2022-12-18T04:33:17;-8.20;99.90
22192;DHT22;11261;52.456;10.850;2022-12-18T04:35:45;-8.20;99.90
22192;DHT22;11261;52.456;10.850;2022-12-18T04:38:14;-8.00;99.90
22192;DHT22;11261;52.456;10.850;2022-12-18T04:40:43;-7.90;99.90
22192;DHT22;11261;52.456;10.850;2022-12-18T04:43:11;-7.70;99.90
22192;DHT22;11261;52.456;10.850;2022-12-18T04:45:40;-7.80;99.90
22192;DHT22;11261;52.456;10.850;2022-12-18T04:48:10;-7.40;99.90
22192;DHT22;11261;52.456;10.850;2022-12-18T04:50:38;-7.70;99.90
22192;DHT22;11261;52.456;10.850;2022-12-18T04:53:06;-7.90;99.90
22192;DHT22;11261;52.456;10.850;2022-12-18T04:55:35;-7.80;99.90
22192;DHT22;11261;52.456;10.850;2022-12-18T04:58:04;-7.50;99.90
22192;DHT22;11261;52.456;10.850;2022-12-18T05:00:32;-7.70;99.90
22192;DHT22;11261;52.456;10.850;2022-12-18T05:03:00;-7.60;99.90
22192;DHT22;11261;52.456;10.850;2022-12-18T05:05:30;-8.00;99.90
22192;DHT22;11261;52.456;10.850;2022-12-18T05:07:59;-8.20;99.90
22192;DHT22;11261;52.456;10.850;2022-12-18T05:10:28;-8.20;99.90
22192;DHT22;11261;52.456;10.850;2022-12-18T05:13:03;-8.20;99.90
22192;DHT22;11261;52.456;10.850;2022-12-18T05:15:32;-8.50;99.90
22192;DHT22;11261;52.456;10.850;2022-12-18T05:18:01;-8.70;99.90
22192;DHT22;11261;52.456;10.850;2022-12-18T05:20:32;-8.70;99.90
22192;DHT22;11261;52.456;10.850;2022-12-18T05:23:00;-8.80;99.90
22192;DHT22;11261;52.456;10.850;2022-12-18T05:25:28;-8.60;99.90
22192;DHT22;11261;52.456;10.850;2022-12-18T05:27:57;-8.50;99.90
22192;DHT22;11261;52.456;10.850;2022-12-18T05:30:25;-8.60;99.90
22192;DHT22;11261;52.456;10.850;2022-12-18T05:32:54;-8.50;99.90
22192;DHT22;11261;52.456;10.850;2022-12-18T05:35:22;-8.60;99.90
22192;DHT22;11261;52.456;10.850;2022-12-18T05:37:52;-8.60;99.90
22192;DHT22;11261;52.456;10.850;2022-12-18T05:40:20;-8.60;99.90
22192;DHT22;11261;52.456;10.850;2022-12-18T05:42:48;-8.60;99.90
22192;DHT22;11261;52.456;10.850;2022-12-18T05:45:16;-8.60;99.90
22192;DHT22;11261;52.456;10.850;2022-12-18T05:47:44;-8.60;99.90
22192;DHT22;11261;52.456;10.850;2022-12-18T05:50:13;-8.60;99.90
22192;DHT22;11261;52.456;10.850;2022-12-18T05:52:41;-8.60;99.90
22192;DHT22;11261;52.456;10.850;2022-12-18T05:55:10;-8.60;99.90
22192;DHT22;11261;52.456;10.850;2022-12-18T05:57:38;-8.60;99.90
22192;DHT22;11261;52.456;10.850;2022-12-18T06:00:08;-8.60;99.90
22192;DHT22;11261;52.456;10.850;2022-12-18T06:02:36;-8.60;99.90
22192;DHT22;11261;52.456;10.850;2022-12-18T06:05:06;-8.50;99.90
22192;DHT22;11261;52.456;10.850;2022-12-18T06:07:34;-8.60;99.90
22192;DHT22;11261;52.456;10.850;2022-12-18T06:10:02;-8.50;99.90
22192;DHT22;11261;52.456;10.850;2022-12-18T06:12:32;-8.50;99.90
22192;DHT22;11261;52.456;10.850;2022-12-18T06:15:00;-8.40;99.90
22192;DHT22;11261;52.456;10.850;2022-12-18T06:17:28;-8.40;99.90
22192;DHT22;11261;52.456;10.850;2022-12-18T06:19:57;-8.50;99.90
22192;DHT22;11261;52.456;10.850;2022-12-18T06:22:26;-8.50;99.90
22192;DHT22;11261;52.456;10.850;2022-12-18T06:24:54;-8.50;99.90
22192;DHT22;11261;52.456;10.850;2022-12-18T06:27:22;-8.40;99.90
22192;DHT22;11261;52.456;10.850;2022-12-18T06:29:51;-8.40;99.90
22192;DHT22;11261;52.456;10.850;2022-12-18T06:32:19;-8.40;99.90
22192;DHT22;11261;52.456;10.850;2022-12-18T06:34:48;-8.30;99.90
22192;DHT22;11261;52.456;10.850;2022-12-18T06:37:16;-8.20;99.90
22192;DHT22;11261;52.456;10.850;2022-12-18T06:39:44;-8.20;99.90
22192;DHT22;11261;52.456;10.850;2022-12-18T06:42:12;-8.30;99.90
22192;DHT22;11261;52.456;10.850;2022-12-18T06:44:40;-8.10;99.90
22192;DHT22;11261;52.456;10.850;2022-12-18T06:47:10;-8.20;99.90
22192;DHT22;11261;52.456;10.850;2022-12-18T06:49:38;-8.10;99.90
22192;DHT22;11261;52.456;10.850;2022-12-18T06:52:06;-8.40;99.90
22192;DHT22;11261;52.456;10.850;2022-12-18T06:54:35;-8.30;99.90
22192;DHT22;11261;52.456;10.850;2022-12-18T06:57:03;-8.50;99.90
22192;DHT22;11261;52.456;10.850;2022-12-18T06:59:31;-8.30;99.90
22192;DHT22;11261;52.456;10.850;2022-12-18T07:01:59;-8.20;99.90
22192;DHT22;11261;52.456;10.850;2022-12-18T07:04:30;-8.10;99.90
22192;DHT22;11261;52.456;10.850;2022-12-18T07:06:58;-8.00;99.90
22192;DHT22;11261;52.456;10.850;2022-12-18T07:09:26;-8.10;99.90
22192;DHT22;11261;52.456;10.850;2022-12-18T07:11:55;-8.10;99.90
22192;DHT22;11261;52.456;10.850;2022-12-18T07:14:23;-8.00;99.90
22192;DHT22;11261;52.456;10.850;2022-12-18T07:16:51;-8.20;99.90
22192;DHT22;11261;52.456;10.850;2022-12-18T07:19:20;-8.60;99.90
22192;DHT22;11261;52.456;10.850;2022-12-18T07:21:51;-8.40;99.90
22192;DHT22;11261;52.456;10.850;2022-12-18T07:24:19;-8.30;99.90
22192;DHT22;11261;52.456;10.850;2022-12-18T07:26:47;-8.30;99.90
22192;DHT22;11261;52.456;10.850;2022-12-18T07:29:15;-8.10;99.90
22192;DHT22;11261;52.456;10.850;2022-12-18T07:31:44;-8.10;99.90
22192;DHT22;11261;52.456;10.850;2022-12-18T07:34:13;-8.20;99.90
22192;DHT22;11261;52.456;10.850;2022-12-18T07:36:42;-8.10;99.90
22192;DHT22;11261;52.456;10.850;2022-12-18T07:39:12;-8.20;99.90
22192;DHT22;11261;52.456;10.850;2022-12-18T07:41:40;-8.10;99.90
22192;DHT22;11261;52.456;10.850;2022-12-18T07:44:13;-7.90;99.90
22192;DHT22;11261;52.456;10.850;2022-12-18T07:46:41;-7.40;99.90
22192;DHT22;11261;52.456;10.850;2022-12-18T07:49:09;-7.40;99.90
22192;DHT22;11261;52.456;10.850;2022-12-18T07:51:37;-7.10;99.90
22192;DHT22;11261;52.456;10.850;2022-12-18T07:54:06;-7.00;99.90
22192;DHT22;11261;52.456;10.850;2022-12-18T07:56:36;-6.50;99.90
22192;DHT22;11261;52.456;10.850;2022-12-18T07:59:04;-6.30;99.90
22192;DHT22;11261;52.456;10.850;2022-12-18T08:01:33;-6.40;99.90
22192;DHT22;11261;52.456;10.850;2022-12-18T08:04:01;-7.10;99.90
22192;DHT22;11261;52.456;10.850;2022-12-18T08:06:29;-6.80;99.90
22192;DHT22;11261;52.456;10.850;2022-12-18T08:08:58;-7.00;99.90
22192;DHT22;11261;52.456;10.850;2022-12-18T08:11:28;-6.50;99.90
22192;DHT22;11261;52.456;10.850;2022-12-18T08:13:58;-6.60;99.90
22192;DHT22;11261;52.456;10.850;2022-12-18T08:16:26;-6.30;99.90
22192;DHT22;11261;52.456;10.850;2022-12-18T08:18:55;-6.60;99.90
22192;DHT22;11261;52.456;10.850;2022-12-18T08:21:24;-7.10;99.90
22192;DHT22;11261;52.456;10.850;2022-12-18T08:23:54;-7.00;99.90
22192;DHT22;11261;52.456;10.850;2022-12-18T08:26:24;-7.60;99.90
22192;DHT22;11261;52.456;10.850;2022-12-18T08:28:54;-7.40;99.90
22192;DHT22;11261;52.456;10.850;2022-12-18T08:31:25;-7.50;99.90
22192;DHT22;11261;52.456;10.850;2022-12-18T08:33:53;-7.50;99.90
22192;DHT22;11261;52.456;10.850;2022-12-18T08:36:23;-7.20;99.90
22192;DHT22;11261;52.456;10.850;2022-12-18T08:38:53;-6.90;99.90
22192;DHT22;11261;52.456;10.850;2022-12-18T08:41:21;-6.60;99.90
22192;DHT22;11261;52.456;10.850;2022-12-18T08:43:49;-6.60;99.90
22192;DHT22;11261;52.456;10.850;2022-12-18T08:46:38;-6.60;99.90
22192;DHT22;11261;52.456;10.850;2022-12-18T08:49:07;-7.20;99.90
22192;DHT22;11261;52.456;10.850;2022-12-18T08:51:35;-6.80;99.90
22192;DHT22;11261;52.456;10.850;2022-12-18T08:54:05;-6.10;99.90
22192;DHT22;11261;52.456;10.850;2022-12-18T08:56:33;-6.40;99.90
22192;DHT22;11261;52.456;10.850;2022-12-18T08:59:02;-6.70;99.90
22192;DHT22;11261;52.456;10.850;2022-12-18T09:01:31;-6.30;99.90
22192;DHT22;11261;52.456;10.850;2022-12-18T09:04:01;-6.00;99.90
22192;DHT22;11261;52.456;10.850;2022-12-18T09:06:30;-5.90;99.90
22192;DHT22;11261;52.456;10.850;2022-12-18T09:08:58;-5.60;99.90
22192;DHT22;11261;52.456;10.850;2022-12-18T09:11:28;-5.20;99.90
22192;DHT22;11261;52.456;10.850;2022-12-18T09:13:57;-5.60;99.90
22192;DHT22;11261;52.456;10.850;2022-12-18T09:16:26;-5.40;99.90
22192;DHT22;11261;52.456;10.850;2022-12-18T09:18:59;-5.30;99.90
22192;DHT22;11261;52.456;10.850;2022-12-18T09:21:30;-5.30;99.90
22192;DHT22;11261;52.456;10.850;2022-12-18T09:24:03;-4.60;99.90
22192;DHT22;11261;52.456;10.850;2022-12-18T09:26:34;-4.20;99.90
22192;DHT22;11261;52.456;10.850;2022-12-18T09:29:04;-4.00;99.90
22192;DHT22;11261;52.456;10.850;2022-12-18T09:31:34;-4.60;99.90
22192;DHT22;11261;52.456;10.850;2022-12-18T09:34:05;-4.90;99.90
22192;DHT22;11261;52.456;10.850;2022-12-18T09:36:35;-5.00;99.90
22192;DHT22;11261;52.456;10.850;2022-12-18T09:39:03;-4.80;99.90
22192;DHT22;11261;52.456;10.850;2022-12-18T09:41:53;-4.70;99.90
22192;DHT22;11261;52.456;10.850;2022-12-18T09:44:28;-4.50;99.90
22192;DHT22;11261;52.456;10.850;2022-12-18T09:47:07;-4.10;99.90
22192;DHT22;11261;52.456;10.850;2022-12-18T09:49:42;-4.20;99.90
22192;DHT22;11261;52.456;10.850;2022-12-18T09:52:16;-4.20;99.90
22192;DHT22;11261;52.456;10.850;2022-12-18T09:54:50;-4.30;99.90
22192;DHT22;11261;52.456;10.850;2022-12-18T09:57:21;-4.50;99.90
22192;DHT22;11261;52.456;10.850;2022-12-18T09:59:53;-3.80;99.90
22192;DHT22;11261;52.456;10.850;2022-12-18T10:02:24;-4.70;99.90
22192;DHT22;11261;52.456;10.850;2022-12-18T10:05:10;-4.70;99.90
22192;DHT22;11261;52.456;10.850;2022-12-18T10:07:49;-4.00;99.90
22192;DHT22;11261;52.456;10.850;2022-12-18T10:10:26;-3.70;99.90
22192;DHT22;11261;52.456;10.850;2022-12-18T10:13:01;-3.20;99.90
22192;DHT22;11261;52.456;10.850;2022-12-18T10:15:35;-2.60;99.90
22192;DHT22;11261;52.456;10.850;2022-12-18T10:18:14;-2.00;99.90
22192;DHT22;11261;52.456;10.850;2022-12-18T10:20:49;-2.20;99.90
22192;DHT22;11261;52.456;10.850;2022-12-18T10:23:25;-2.70;99.90
22192;DHT22;11261;52.456;10.850;2022-12-18T10:26:00;-2.20;99.90
22192;DHT22;11261;52.456;10.850;2022-12-18T10:28:30;-2.50;99.90
22192;DHT22;11261;52.456;10.850;2022-12-18T10:30:59;-1.80;99.90
22192;DHT22;11261;52.456;10.850;2022-12-18T10:33:29;-2.20;99.90
22192;DHT22;11261;52.456;10.850;2022-12-18T10:35:59;-2.50;99.90
22192;DHT22;11261;52.456;10.850;2022-12-18T10:38:30;-2.80;99.90
22192;DHT22;11261;52.456;10.850;2022-12-18T10:41:00;-2.70;99.90
22192;DHT22;11261;52.456;10.850;2022-12-18T10:43:30;-2.70;99.90
22192;DHT22;11261;52.456;10.850;2022-12-18T10:46:02;-2.50;99.90
22192;DHT22;11261;52.456;10.850;2022-12-18T10:48:31;-3.20;99.90
22192;DHT22;11261;52.456;10.850;2022-12-18T10:51:00;-2.60;99.90
22192;DHT22;11261;52.456;10.850;2022-12-18T10:53:41;-3.00;99.90
22192;DHT22;11261;52.456;10.850;2022-12-18T10:56:10;-2.90;99.90
22192;DHT22;11261;52.456;10.850;2022-12-18T10:58:39;-2.90;99.90
22192;DHT22;11261;52.456;10.850;2022-12-18T11:01:10;-3.20;99.90
22192;DHT22;11261;52.456;10.850;2022-12-18T11:03:40;-3.00;99.90
22192;DHT22;11261;52.456;10.850;2022-12-18T11:06:12;-3.00;99.90
22192;DHT22;11261;52.456;10.850;2022-12-18T11:08:43;-3.20;99.90
22192;DHT22;11261;52.456;10.850;2022-12-18T11:11:19;-3.50;99.90
22192;DHT22;11261;52.456;10.850;2022-12-18T11:13:57;-3.20;99.90
22192;DHT22;11261;52.456;10.850;2022-12-18T11:16:28;-3.20;99.90
22192;DHT22;11261;52.456;10.850;2022-12-18T11:19:13;-3.10;99.90
22192;DHT22;11261;52.456;10.850;2022-12-18T11:21:42;-2.80;99.90
22192;DHT22;11261;52.456;10.850;2022-12-18T11:24:20;-3.00;99.90
22192;DHT22;11261;52.456;10.850;2022-12-18T11:26:51;-3.20;99.90
22192;DHT22;11261;52.456;10.850;2022-12-18T11:29:31;-3.10;99.90
22192;DHT22;11261;52.456;10.850;2022-12-18T11:32:27;-3.30;99.90
22192;DHT22;11261;52.456;10.850;2022-12-18T11:35:04;-3.10;99.90
22192;DHT22;11261;52.456;10.850;2022-12-18T11:37:36;-3.20;99.90
22192;DHT22;11261;52.456;10.850;2022-12-18T11:40:11;-3.20;99.90
22192;DHT22;11261;52.456;10.850;2022-12-18T11:42:45;-3.00;99.90
22192;DHT22;11261;52.456;10.850;2022-12-18T11:45:34;-3.10;99.90
22192;DHT22;11261;52.456;10.850;2022-12-18T11:48:05;-2.90;99.90
22192;DHT22;11261;52.456;10.850;2022-12-18T11:50:43;-2.60;99.90
22192;DHT22;11261;52.456;10.850;2022-12-18T11:53:13;-3.00;99.90
22192;DHT22;11261;52.456;10.850;2022-12-18T11:55:56;-3.30;99.90
22192;DHT22;11261;52.456;10.850;2022-12-18T11:58:43;-2.90;99.90
22192;DHT22;11261;52.456;10.850;2022-12-18T12:01:19;-3.00;99.90
22192;DHT22;11261;52.456;10.850;2022-12-18T12:04:13;-3.00;99.90
22192;DHT22;11261;52.456;10.850;2022-12-18T12:06:49;-2.70;99.90
22192;DHT22;11261;52.456;10.850;2022-12-18T12:09:32;-2.60;99.90
22192;DHT22;11261;52.456;10.850;2022-12-18T12:12:15;-2.70;99.90
22192;DHT22;11261;52.456;10.850;2022-12-18T12:14:57;-2.80;99.90
22192;DHT22;11261;52.456;10.850;2022-12-18T12:17:35;-2.50;99.90
22192;DHT22;11261;52.456;10.850;2022-12-18T12:20:12;-2.70;99.90
22192;DHT22;11261;52.456;10.850;2022-12-18T12:22:48;-2.50;99.90
22192;DHT22;11261;52.456;10.850;2022-12-18T12:25:28;-2.70;99.90
22192;DHT22;11261;52.456;10.850;2022-12-18T12:28:09;-2.60;99.90
22192;DHT22;11261;52.456;10.850;2022-12-18T12:30:47;-2.60;99.90
22192;DHT22;11261;52.456;10.850;2022-12-18T12:33:31;-2.50;99.90
22192;DHT22;11261;52.456;10.850;2022-12-18T12:36:11;-2.10;99.90
22192;DHT22;11261;52.456;10.850;2022-12-18T12:38:44;-2.20;99.90
22192;DHT22;11261;52.456;10.850;2022-12-18T12:41:20;-2.30;99.90
22192;DHT22;11261;52.456;10.850;2022-12-18T12:44:12;-2.40;99.90
22192;DHT22;11261;52.456;10.850;2022-12-18T12:46:43;-2.30;99.90
22192;DHT22;11261;52.456;10.850;2022-12-18T12:49:14;-2.30;99.90
22192;DHT22;11261;52.456;10.850;2022-12-18T12:51:45;-2.30;99.90
22192;DHT22;11261;52.456;10.850;2022-12-18T12:54:17;-2.10;99.90
22192;DHT22;11261;52.456;10.850;2022-12-18T12:56:51;-2.20;99.90
22192;DHT22;11261;52.456;10.850;2022-12-18T12:59:29;-2.10;99.90
22192;DHT22;11261;52.456;10.850;2022-12-18T13:02:05;-2.20;99.90
22192;DHT22;11261;52.456;10.850;2022-12-18T13:04:40;-2.00;99.90
22192;DHT22;11261;52.456;10.850;2022-12-18T13:07:14;-2.00;99.90
22192;DHT22;11261;52.456;10.850;2022-12-18T13:13:06;-2.00;99.90
22192;DHT22;11261;52.456;10.850;2022-12-18T13:15:41;-2.10;99.90
22192;DHT22;11261;52.456;10.850;2022-12-18T13:18:20;-2.10;99.90
22192;DHT22;11261;52.456;10.850;2022-12-18T13:20:50;-2.10;99.90
22192;DHT22;11261;52.456;10.850;2022-12-18T13:23:32;-2.00;99.90
22192;DHT22;11261;52.456;10.850;2022-12-18T13:26:32;-2.00;99.90
22192;DHT22;11261;52.456;10.850;2022-12-18T13:29:02;-2.00;99.90
22192;DHT22;11261;52.456;10.850;2022-12-18T13:34:37;-2.10;99.90
22192;DHT22;11261;52.456;10.850;2022-12-18T13:37:40;-2.10;99.90
22192;DHT22;11261;52.456;10.850;2022-12-18T13:43:37;-2.10;99.90
22192;DHT22;11261;52.456;10.850;2022-12-18T13:46:24;-2.10;99.90
22192;DHT22;11261;52.456;10.850;2022-12-18T13:48:59;-2.20;99.90
22192;DHT22;11261;52.456;10.850;2022-12-18T13:51:32;-2.40;99.90
22192;DHT22;11261;52.456;10.850;2022-12-18T13:54:02;-2.40;99.90
22192;DHT22;11261;52.456;10.850;2022-12-18T13:56:33;-2.50;99.90
22192;DHT22;11261;52.456;10.850;2022-12-18T13:59:14;-2.40;99.90
22192;DHT22;11261;52.456;10.850;2022-12-18T14:01:46;-2.40;99.90
22192;DHT22;11261;52.456;10.850;2022-12-18T14:04:26;-2.50;99.90
22192;DHT22;11261;52.456;10.850;2022-12-18T14:07:03;-2.60;99.90
22192;DHT22;11261;52.456;10.850;2022-12-18T14:09:36;-2.60;99.90
22192;DHT22;11261;52.456;10.850;2022-12-18T14:12:06;-2.70;99.90
22192;DHT22;11261;52.456;10.850;2022-12-18T14:15:00;-2.80;99.90
22192;DHT22;11261;52.456;10.850;2022-12-18T14:17:28;-2.80;99.90
22192;DHT22;11261;52.456;10.850;2022-12-18T14:20:00;-2.90;99.90
22192;DHT22;11261;52.456;10.850;2022-12-18T14:22:30;-3.00;99.90
22192;DHT22;11261;52.456;10.850;2022-12-18T14:25:13;-3.00;99.90
22192;DHT22;11261;52.456;10.850;2022-12-18T14:27:43;-3.00;99.90
22192;DHT22;11261;52.456;10.850;2022-12-18T14:30:24;-3.00;99.90
22192;DHT22;11261;52.456;10.850;2022-12-18T14:33:03;-3.10;99.90
22192;DHT22;11261;52.456;10.850;2022-12-18T14:35:32;-3.10;99.90
22192;DHT22;11261;52.456;10.850;2022-12-18T14:38:24;-3.20;99.90
22192;DHT22;11261;52.456;10.850;2022-12-18T14:40:58;-3.30;99.90
22192;DHT22;11261;52.456;10.850;2022-12-18T14:43:29;-3.30;99.90
22192;DHT22;11261;52.456;10.850;2022-12-18T14:45:57;-3.30;99.90
22192;DHT22;11261;52.456;10.850;2022-12-18T14:48:35;-3.40;99.90
22192;DHT22;11261;52.456;10.850;2022-12-18T14:51:05;-3.40;99.90
22192;DHT22;11261;52.456;10.850;2022-12-18T14:53:38;-3.50;99.90
22192;DHT22;11261;52.456;10.850;2022-12-18T14:56:15;-3.40;99.90
22192;DHT22;11261;52.456;10.850;2022-12-18T14:58:46;-3.40;99.90
22192;DHT22;11261;52.456;10.850;2022-12-18T15:01:19;-3.40;99.90
22192;DHT22;11261;52.456;10.850;2022-12-18T15:03:48;-3.50;99.90
22192;DHT22;11261;52.456;10.850;2022-12-18T15:06:21;-3.50;99.90
22192;DHT22;11261;52.456;10.850;2022-12-18T15:08:53;-3.40;99.90
22192;DHT22;11261;52.456;10.850;2022-12-18T15:11:45;-3.40;99.90
22192;DHT22;11261;52.456;10.850;2022-12-18T15:14:34;-3.40;99.90
22192;DHT22;11261;52.456;10.850;2022-12-18T15:17:04;-3.40;99.90
22192;DHT22;11261;52.456;10.850;2022-12-18T15:19:37;-3.50;99.90
22192;DHT22;11261;52.456;10.850;2022-12-18T15:22:21;-3.40;99.90
22192;DHT22;11261;52.456;10.850;2022-12-18T15:24:52;-3.50;99.90
22192;DHT22;11261;52.456;10.850;2022-12-18T15:27:24;-3.50;99.90
22192;DHT22;11261;52.456;10.850;2022-12-18T15:30:21;-3.60;99.90
22192;DHT22;11261;52.456;10.850;2022-12-18T15:32:51;-3.50;99.90
22192;DHT22;11261;52.456;10.850;2022-12-18T15:35:21;-3.60;99.90
22192;DHT22;11261;52.456;10.850;2022-12-18T15:37:51;-3.60;99.90
22192;DHT22;11261;52.456;10.850;2022-12-18T15:40:22;-3.60;99.90
22192;DHT22;11261;52.456;10.850;2022-12-18T15:42:53;-3.60;99.90
22192;DHT22;11261;52.456;10.850;2022-12-18T15:45:39;-3.60;99.90
22192;DHT22;11261;52.456;10.850;2022-12-18T15:48:17;-3.70;99.90
22192;DHT22;11261;52.456;10.850;2022-12-18T15:50:47;-3.70;99.90
22192;DHT22;11261;52.456;10.850;2022-12-18T15:53:15;-3.70;99.90
22192;DHT22;11261;52.456;10.850;2022-12-18T15:55:45;-3.70;99.90